Time;durP1;ratioP1;P1;durP2;ratioP2;P2;SDS_P1;SDS_P2;PMS_P1;PMS_P2;Temp;Humidity;BMP_temperature;BMP_pressure;BME280_temperature;BME280_humidity;BME280_pressure;Samples;Min_cycle;Max_cycle;Signal;HPM_P1;HPM_P2
2021/06/07 00:00:25;;;;;;;2.77;1.40;;;24.70;48.10;;;;;;5026291;28;20648;-62
2021/06/07 00:02:53;;;;;;;3.40;1.40;;;24.70;48.20;;;;;;5025200;28;20198;-62
2021/06/07 00:05:21;;;;;;;1.70;1.60;;;24.60;48.00;;;;;;5038215;28;20206;-62
2021/06/07 00:07:48;;;;;;;2.80;1.20;;;24.60;48.10;;;;;;5043779;28;20934;-62
2021/06/07 00:10:16;;;;;;;3.53;1.40;;;24.60;48.00;;;;;;5035794;28;20203;-62
2021/06/07 00:12:44;;;;;;;2.43;1.30;;;24.60;48.10;;;;;;5025175;28;20214;-62
2021/06/07 00:15:14;;;;;;;2.13;1.33;;;24.60;48.10;;;;;;5024780;28;20191;-62
2021/06/07 00:17:41;;;;;;;3.13;1.40;;;24.60;48.00;;;;;;5025068;28;20805;-62
2021/06/07 00:20:14;;;;;;;3.23;1.30;;;24.60;48.20;;;;;;5028421;28;20194;-62
2021/06/07 00:22:41;;;;;;;2.07;1.20;;;24.60;48.20;;;;;;5044783;28;20221;-62
2021/06/07 00:25:09;;;;;;;1.73;1.27;;;24.60;48.20;;;;;;5027680;28;20263;-62
2021/06/07 00:27:36;;;;;;;3.40;1.30;;;24.50;48.10;;;;;;5026181;28;20208;-62
2021/06/07 00:30:06;;;;;;;2.40;1.30;;;24.50;48.10;;;;;;5040181;28;20202;-62
2021/06/07 00:32:33;;;;;;;2.00;1.30;;;24.60;47.90;;;;;;5048625;28;20209;-62
2021/06/07 00:35:00;;;;;;;2.77;1.40;;;24.50;48.00;;;;;;5044333;28;20225;-62
2021/06/07 00:37:26;;;;;;;3.33;1.43;;;24.50;48.10;;;;;;5028662;28;20211;-62
2021/06/07 00:39:53;;;;;;;1.87;1.30;;;24.50;48.00;;;;;;5028024;28;20417;-62
2021/06/07 00:42:20;;;;;;;1.67;1.40;;;24.50;48.10;;;;;;5028413;28;20213;-62
2021/06/07 00:44:47;;;;;;;3.53;1.60;;;24.50;48.00;;;;;;5037348;28;20190;-62
2021/06/07 00:47:14;;;;;;;2.40;1.43;;;24.50;48.00;;;;;;5022280;28;20199;-62
2021/06/07 00:49:41;;;;;;;1.73;1.47;;;24.40;48.00;;;;;;5032609;28;20219;-62
2021/06/07 00:52:08;;;;;;;2.07;1.50;;;24.50;48.10;;;;;;5035231;28;20195;-62
2021/06/07 00:54:35;;;;;;;2.30;1.50;;;24.40;48.00;;;;;;5047906;28;20194;-62
2021/06/07 00:57:02;;;;;;;2.20;1.30;;;24.40;47.90;;;;;;5030394;28;20218;-62
2021/06/07 00:59:29;;;;;;;1.47;1.30;;;24.40;48.00;;;;;;5047620;28;20271;-62
2021/06/07 01:01:56;;;;;;;2.83;1.70;;;24.40;48.00;;;;;;5030282;28;20202;-62
2021/06/07 01:04:23;;;;;;;1.40;1.23;;;24.40;48.00;;;;;;5048042;28;20199;-62
2021/06/07 01:06:50;;;;;;;2.03;1.50;;;24.40;48.00;;;;;;5047794;28;20662;-62
2021/06/07 01:09:17;;;;;;;3.63;1.20;;;24.40;48.30;;;;;;5047239;28;20190;-62
2021/06/07 01:11:43;;;;;;;2.20;1.30;;;24.40;49.20;;;;;;5046966;28;20190;-63
2021/06/07 01:14:10;;;;;;;3.50;1.53;;;24.40;48.80;;;;;;5047966;28;20191;-62
2021/06/07 01:16:37;;;;;;;3.40;1.60;;;24.40;48.50;;;;;;5047439;28;20216;-62
2021/06/07 01:19:07;;;;;;;3.17;1.60;;;24.40;48.20;;;;;;5047638;28;20264;-62
2021/06/07 01:21:34;;;;;;;2.63;1.23;;;24.40;48.20;;;;;;5044085;28;20184;-62
2021/06/07 01:24:01;;;;;;;2.40;1.60;;;24.30;48.10;;;;;;5028016;28;20183;-61
2021/06/07 01:26:28;;;;;;;2.87;1.50;;;24.30;48.10;;;;;;5034957;28;20683;-62
2021/06/07 01:28:55;;;;;;;1.90;1.60;;;24.30;48.00;;;;;;5047625;28;20186;-61
2021/06/07 01:31:23;;;;;;;2.43;1.97;;;24.30;47.90;;;;;;5046953;28;20182;-62
2021/06/07 01:33:52;;;;;;;1.80;1.53;;;24.30;48.00;;;;;;5047411;28;20222;-61
2021/06/07 01:36:19;;;;;;;2.67;1.70;;;24.30;47.90;;;;;;5047664;28;20183;-61
2021/06/07 01:38:46;;;;;;;2.13;1.50;;;24.30;47.90;;;;;;5045287;28;20198;-61
2021/06/07 01:41:15;;;;;;;2.60;1.90;;;24.30;48.00;;;;;;5046184;28;20566;-61
2021/06/07 01:43:46;;;;;;;3.87;1.63;;;24.30;47.90;;;;;;5045914;28;20787;-61
2021/06/07 01:46:13;;;;;;;2.57;1.50;;;24.20;47.90;;;;;;5046746;28;20196;-61
2021/06/07 01:48:40;;;;;;;2.77;1.60;;;24.20;47.90;;;;;;5034091;28;20198;-61
2021/06/07 01:51:08;;;;;;;1.63;1.53;;;24.30;48.00;;;;;;5028307;28;20191;-61
2021/06/07 01:53:35;;;;;;;1.83;1.50;;;24.30;48.10;;;;;;5027307;28;20196;-62
2021/06/07 01:56:05;;;;;;;2.83;2.03;;;24.20;48.00;;;;;;5026799;28;20237;-61
2021/06/07 01:58:32;;;;;;;2.20;1.70;;;24.20;47.90;;;;;;5027361;28;20257;-61
2021/06/07 02:01:12;;;;;;;1.83;1.63;;;24.20;48.00;;;;;;5026860;28;20197;-62
2021/06/07 02:03:40;;;;;;;2.33;1.53;;;24.20;47.90;;;;;;5012983;28;20190;-61
2021/06/07 02:06:09;;;;;;;2.37;1.70;;;24.20;48.00;;;;;;5041677;28;20186;-61
2021/06/07 02:08:37;;;;;;;3.13;2.00;;;24.20;48.00;;;;;;5044621;28;20229;-61
2021/06/07 02:11:14;;;;;;;3.43;1.80;;;24.10;48.00;;;;;;5046870;28;20600;-61
2021/06/07 02:13:44;;;;;;;2.03;1.70;;;24.20;48.10;;;;;;5027353;28;20194;-61
2021/06/07 02:16:15;;;;;;;2.23;1.57;;;24.10;48.00;;;;;;5046489;28;20205;-61
2021/06/07 02:18:42;;;;;;;3.43;2.07;;;24.10;48.00;;;;;;5044512;28;20233;-61
2021/06/07 02:21:10;;;;;;;2.20;1.80;;;24.10;48.00;;;;;;5045967;28;20182;-61
2021/06/07 02:23:38;;;;;;;3.43;1.80;;;24.10;48.00;;;;;;5035887;28;20522;-61
2021/06/07 02:26:07;;;;;;;4.50;1.97;;;24.10;48.00;;;;;;5043363;28;20190;-61
2021/06/07 02:28:35;;;;;;;2.27;1.70;;;24.10;48.10;;;;;;5043067;28;20221;-61
2021/06/07 02:31:04;;;;;;;2.77;1.90;;;24.10;48.10;;;;;;5026667;28;20198;-61
2021/06/07 02:33:31;;;;;;;2.53;1.93;;;24.00;48.00;;;;;;5026190;28;20266;-61
2021/06/07 02:35:58;;;;;;;2.70;1.70;;;24.10;48.10;;;;;;5026999;28;20534;-61
2021/06/07 02:38:24;;;;;;;4.80;2.07;;;24.00;48.00;;;;;;5026124;28;20219;-61
2021/06/07 02:40:52;;;;;;;3.13;1.80;;;24.00;48.10;;;;;;5026558;28;20221;-61
2021/06/07 02:43:20;;;;;;;4.63;1.90;;;24.00;48.00;;;;;;5026052;28;20583;-61
2021/06/07 02:45:47;;;;;;;4.20;1.77;;;24.00;48.00;;;;;;5027862;28;20202;-61
2021/06/07 02:48:14;;;;;;;2.67;1.90;;;24.00;48.00;;;;;;5002466;28;20206;-61
2021/06/07 02:50:43;;;;;;;2.63;2.07;;;24.00;48.00;;;;;;4988650;28;20196;-61
2021/06/07 02:53:11;;;;;;;3.97;1.70;;;24.00;48.10;;;;;;5036479;28;20854;-61
2021/06/07 02:55:50;;;;;;;2.57;2.10;;;23.90;48.00;;;;;;5045576;28;20186;-61
2021/06/07 02:58:19;;;;;;;2.80;2.00;;;24.00;48.10;;;;;;5040552;28;20205;-61
2021/06/07 03:00:49;;;;;;;2.60;2.00;;;23.90;48.00;;;;;;5045653;28;20261;-61
2021/06/07 03:03:17;;;;;;;2.53;1.87;;;23.90;48.00;;;;;;5016239;28;20222;-61
2021/06/07 03:05:47;;;;;;;2.77;1.60;;;23.90;47.90;;;;;;5031358;28;20205;-61
2021/06/07 03:08:17;;;;;;;2.20;1.90;;;23.90;47.90;;;;;;5025758;28;20748;-61
2021/06/07 03:10:49;;;;;;;4.67;2.13;;;23.90;47.90;;;;;;5025977;28;20210;-61
2021/06/07 03:13:17;;;;;;;3.60;1.80;;;23.90;47.80;;;;;;5025804;28;20200;-62
2021/06/07 03:15:44;;;;;;;3.13;1.83;;;23.90;47.90;;;;;;5024984;28;20194;-61
2021/06/07 03:18:12;;;;;;;2.50;1.80;;;23.90;47.80;;;;;;5041931;28;20225;-61
2021/06/07 03:20:39;;;;;;;2.17;1.77;;;23.90;47.90;;;;;;5025640;28;20206;-62
2021/06/07 03:23:12;;;;;;;2.00;1.80;;;23.90;47.80;;;;;;5040061;28;20277;-61
2021/06/07 03:25:41;;;;;;;2.40;1.90;;;23.80;47.80;;;;;;5045450;28;20213;-61
2021/06/07 03:28:08;;;;;;;2.20;2.00;;;23.80;47.80;;;;;;5045356;28;20198;-61
2021/06/07 03:30:36;;;;;;;3.43;2.20;;;23.90;47.80;;;;;;5045295;28;20822;-61
2021/06/07 03:33:08;;;;;;;2.37;1.93;;;23.80;47.80;;;;;;5045380;28;20208;-61
2021/06/07 03:35:38;;;;;;;4.27;2.20;;;23.80;47.80;;;;;;5040505;28;20226;-61
2021/06/07 03:38:06;;;;;;;4.47;2.27;;;23.80;47.80;;;;;;5045156;28;20218;-61
2021/06/07 03:40:36;;;;;;;3.27;2.27;;;23.80;47.80;;;;;;5045218;28;20201;-61
2021/06/07 03:43:04;;;;;;;4.30;2.00;;;23.80;47.80;;;;;;5045082;28;20721;-61
2021/06/07 03:45:31;;;;;;;3.17;2.10;;;23.80;47.80;;;;;;5042882;28;20186;-61
2021/06/07 03:47:58;;;;;;;2.33;2.00;;;23.80;47.80;;;;;;5045125;28;20198;-61
2021/06/07 03:50:27;;;;;;;1.87;1.60;;;23.80;47.80;;;;;;5044931;28;20186;-61
2021/06/07 03:52:54;;;;;;;2.40;1.87;;;23.80;47.80;;;;;;5032509;28;20203;-61
2021/06/07 03:55:27;;;;;;;4.00;2.20;;;23.70;47.80;;;;;;5025646;28;20326;-64
2021/06/07 03:57:55;;;;;;;4.00;1.93;;;23.80;47.90;;;;;;5024793;28;20213;-65
2021/06/07 04:00:26;;;;;;;2.93;2.20;;;23.70;47.80;;;;;;5021432;28;20194;-65
2021/06/07 04:02:53;;;;;;;2.37;2.13;;;23.70;47.80;;;;;;5046482;28;20224;-65
2021/06/07 04:05:20;;;;;;;5.47;2.33;;;23.70;47.80;;;;;;5036208;28;20198;-64
2021/06/07 04:07:48;;;;;;;3.23;2.20;;;23.70;47.90;;;;;;5028961;28;20519;-65
2021/06/07 04:10:18;;;;;;;3.03;2.30;;;23.70;47.80;;;;;;5029556;28;20272;-62
2021/06/07 04:12:46;;;;;;;2.10;1.90;;;23.70;47.90;;;;;;5029431;28;20197;-62
2021/06/07 04:15:16;;;;;;;3.47;1.97;;;23.70;47.90;;;;;;5029620;28;20632;-62
2021/06/07 04:17:43;;;;;;;2.33;1.80;;;23.70;47.90;;;;;;5029254;28;20218;-62
2021/06/07 04:20:14;;;;;;;2.30;2.07;;;23.70;48.00;;;;;;5028715;28;20198;-61
2021/06/07 04:22:42;;;;;;;3.37;2.10;;;23.70;47.90;;;;;;5039341;28;20198;-62
2021/06/07 04:25:10;;;;;;;2.50;2.07;;;23.60;47.90;;;;;;5049306;28;20213;-64
2021/06/07 04:27:38;;;;;;;3.37;2.07;;;23.70;48.00;;;;;;5049559;28;20545;-65
2021/06/07 04:30:11;;;;;;;3.50;2.13;;;23.70;48.00;;;;;;5049155;28;20524;-65
2021/06/07 04:32:39;;;;;;;2.13;1.90;;;23.70;48.00;;;;;;5049126;28;20194;-65
2021/06/07 04:35:08;;;;;;;3.23;2.17;;;23.70;48.10;;;;;;5048750;28;20230;-61
2021/06/07 04:37:51;;;;;;;2.47;2.27;;;23.70;48.20;;;;;;5029114;28;20693;-62
2021/06/07 04:40:22;;;;;;;3.10;2.13;;;23.70;48.30;;;;;;5033886;28;20224;-64
2021/06/07 04:42:49;;;;;;;3.10;2.30;;;23.70;48.30;;;;;;5028865;28;20902;-64
2021/06/07 04:45:17;;;;;;;5.00;2.30;;;23.60;48.30;;;;;;5041607;28;20190;-61
2021/06/07 04:47:46;;;;;;;2.53;2.17;;;23.70;48.40;;;;;;5040220;28;20266;-62
2021/06/07 04:50:14;;;;;;;3.13;2.10;;;23.60;48.40;;;;;;5029469;28;20242;-64
2021/06/07 04:53:00;;;;;;;2.67;2.17;;;23.60;48.40;;;;;;5038199;28;20800;-65
2021/06/07 04:55:46;;;;;;;2.57;2.37;;;23.60;48.40;;;;;;5048511;28;20588;-65
2021/06/07 04:58:16;;;;;;;5.50;2.67;;;23.60;49.00;;;;;;5029494;28;20215;-65
2021/06/07 05:00:47;;;;;;;2.00;1.80;;;23.60;48.40;;;;;;5037754;28;20549;-65
2021/06/07 05:03:14;;;;;;;2.50;2.30;;;23.60;48.40;;;;;;5047024;28;20190;-65
2021/06/07 05:05:41;;;;;;;2.90;2.30;;;23.60;48.60;;;;;;5030116;28;20306;-61
2021/06/07 05:08:08;;;;;;;4.80;2.87;;;23.60;49.00;;;;;;5027507;28;20187;-61
2021/06/07 05:10:36;;;;;;;3.50;2.93;;;23.60;49.10;;;;;;5028080;28;20187;-61
2021/06/07 05:13:03;;;;;;;4.43;2.70;;;23.50;49.00;;;;;;5027840;28;20647;-62
2021/06/07 05:15:31;;;;;;;4.10;3.00;;;23.60;48.90;;;;;;5028276;28;20191;-66
2021/06/07 05:17:58;;;;;;;4.93;2.67;;;23.50;48.70;;;;;;5026825;28;20245;-65
2021/06/07 05:20:27;;;;;;;4.80;2.40;;;23.50;48.30;;;;;;5028207;28;20644;-62
2021/06/07 05:22:55;;;;;;;17.30;7.37;;;23.50;48.20;;;;;;5037416;28;20230;-62
2021/06/07 05:25:23;;;;;;;48.13;12.87;;;23.50;49.70;;;;;;5029630;23;20246;-74
2021/06/07 05:27:52;;;;;;;29.37;10.10;;;23.50;50.20;;;;;;5023273;28;20195;-74
2021/06/07 05:30:21;;;;;;;19.37;7.10;;;23.50;49.60;;;;;;5023531;28;20316;-77
2021/06/07 05:32:49;;;;;;;12.57;4.57;;;23.50;48.90;;;;;;5019949;28;20584;-80
2021/06/07 05:35:17;;;;;;;11.73;4.83;;;23.60;48.70;;;;;;5020723;28;20501;-78
2021/06/07 05:37:44;;;;;;;10.10;4.30;;;23.50;48.30;;;;;;5011594;28;20200;-78
2021/06/07 05:40:13;;;;;;;13.60;4.43;;;23.50;48.50;;;;;;5021763;28;20878;-77
2021/06/07 05:42:41;;;;;;;23.83;9.47;;;23.50;48.70;;;;;;5022636;28;20202;-81
2021/06/07 05:45:10;;;;;;;34.50;10.40;;;23.60;49.60;;;;;;5000921;28;20207;-79
2021/06/07 05:47:43;;;;;;;33.67;10.17;;;23.60;49.40;;;;;;4994925;28;20924;-80
2021/06/07 05:50:14;;;;;;;28.67;9.40;;;23.70;49.50;;;;;;5144285;22;20269;-80
2021/06/07 05:52:47;;;;;;;14.63;6.83;;;23.70;49.60;;;;;;5034171;28;20206;-79
2021/06/07 05:55:25;;;;;;;27.87;6.30;;;23.70;48.80;;;;;;5027628;28;20198;-79
2021/06/07 05:57:55;;;;;;;27.97;5.43;;;23.70;49.00;;;;;;5036455;28;20592;-81
2021/06/07 06:00:25;;;;;;;13.13;4.60;;;23.70;48.60;;;;;;5045792;28;20198;-80
2021/06/07 06:02:52;;;;;;;12.63;4.03;;;23.70;48.30;;;;;;5044675;28;20221;-79
2021/06/07 06:08:18;;;;;;;11.97;3.53;;;23.80;48.60;;;;;;4729885;26;20847;-67
2021/06/07 06:10:59;;;;;;;11.03;3.97;;;23.80;48.30;;;;;;4988263;28;20203;-68
2021/06/07 06:13:56;;;;;;;9.67;3.40;;;23.80;48.70;;;;;;4992961;28;20884;-65
2021/06/07 06:16:25;;;;;;;9.30;3.27;;;23.80;48.60;;;;;;4995882;28;20202;-66
2021/06/07 06:18:57;;;;;;;6.07;3.70;;;23.90;48.50;;;;;;5005210;28;20211;-67
2021/06/07 06:21:41;;;;;;;7.03;2.57;;;23.90;48.20;;;;;;4987303;28;20345;-66
2021/06/07 06:24:10;;;;;;;6.07;2.93;;;23.90;48.40;;;;;;5003796;28;20222;-68
2021/06/07 06:26:42;;;;;;;12.17;2.77;;;23.90;48.00;;;;;;4996919;28;20208;-68
2021/06/07 06:29:10;;;;;;;6.30;2.57;;;23.90;48.40;;;;;;4998139;28;20547;-67
2021/06/07 06:31:38;;;;;;;12.77;2.80;;;24.00;48.00;;;;;;4998088;28;20224;-67
2021/06/07 06:34:06;;;;;;;7.57;3.23;;;24.00;48.40;;;;;;5002041;28;20794;-68
2021/06/07 06:36:35;;;;;;;9.40;3.60;;;24.10;52.60;;;;;;5001370;28;20295;-70
2021/06/07 06:39:04;;;;;;;10.00;3.00;;;24.10;53.40;;;;;;5003114;28;20223;-68
2021/06/07 06:41:35;;;;;;;2.63;2.00;;;24.20;53.10;;;;;;5011162;28;20203;-72
2021/06/07 06:44:10;;;;;;;6.47;3.20;;;24.20;52.50;;;;;;4999594;28;20204;-72
2021/06/07 06:46:37;;;;;;;5.40;3.00;;;24.20;51.80;;;;;;5004386;28;20219;-68
2021/06/07 06:49:05;;;;;;;5.57;3.10;;;24.20;51.20;;;;;;4987576;28;20278;-72
2021/06/07 06:51:34;;;;;;;8.10;2.60;;;24.30;51.00;;;;;;4977846;28;20208;-72
2021/06/07 06:54:06;;;;;;;5.40;2.47;;;24.30;50.60;;;;;;4990237;28;20204;-71
2021/06/07 06:56:34;;;;;;;2.53;2.20;;;24.40;50.10;;;;;;5000416;28;20212;-69
2021/06/07 06:59:06;;;;;;;3.37;2.37;;;24.40;49.90;;;;;;5007720;28;20616;-68
2021/06/07 07:01:34;;;;;;;6.27;2.73;;;24.50;49.40;;;;;;5004342;28;20206;-69
2021/06/07 07:04:07;;;;;;;5.27;2.30;;;24.60;49.40;;;;;;5017781;28;20201;-68
2021/06/07 07:06:38;;;;;;;5.73;2.23;;;24.60;49.30;;;;;;4991833;28;20208;-68
2021/06/07 07:09:10;;;;;;;3.37;2.33;;;24.60;49.10;;;;;;5008520;28;20211;-68
2021/06/07 07:11:39;;;;;;;4.63;2.90;;;24.70;49.00;;;;;;5006562;28;20223;-66
2021/06/07 07:14:09;;;;;;;3.87;2.37;;;24.70;48.60;;;;;;5010917;28;20520;-66
2021/06/07 07:16:38;;;;;;;3.10;2.67;;;24.70;48.50;;;;;;5007576;28;20203;-65
2021/06/07 07:19:07;;;;;;;2.17;1.97;;;24.70;48.60;;;;;;5007120;28;20248;-65
2021/06/07 07:21:36;;;;;;;2.40;1.97;;;24.80;48.90;;;;;;5007990;28;20661;-67
2021/06/07 07:24:03;;;;;;;13.13;2.13;;;24.90;48.50;;;;;;4995585;28;20207;-67
2021/06/07 07:26:34;;;;;;;2.80;1.90;;;24.90;48.50;;;;;;5005529;28;20712;-66
2021/06/07 07:29:05;;;;;;;3.07;1.97;;;25.00;48.40;;;;;;5008542;28;20203;-66
2021/06/07 07:31:34;;;;;;;4.10;1.70;;;25.00;48.40;;;;;;5004246;28;20215;-65
2021/06/07 07:34:05;;;;;;;2.43;2.20;;;25.00;48.30;;;;;;5009331;28;20217;-65
2021/06/07 07:36:36;;;;;;;9.57;3.17;;;25.10;48.10;;;;;;4978825;28;20207;-65
2021/06/07 07:39:07;;;;;;;4.83;3.30;;;25.10;47.80;;;;;;4994578;28;20676;-65
2021/06/07 07:41:37;;;;;;;4.53;3.97;;;25.20;47.70;;;;;;5002353;28;20192;-66
2021/06/07 07:44:14;;;;;;;6.27;4.03;;;25.10;47.30;;;;;;4998317;28;20199;-66
2021/06/07 07:46:43;;;;;;;3.63;3.33;;;25.10;47.40;;;;;;5007915;28;20966;-66
2021/06/07 07:49:14;;;;;;;6.60;3.20;;;25.10;47.40;;;;;;5000649;28;20219;-67
2021/06/07 07:51:43;;;;;;;3.77;2.90;;;25.20;47.30;;;;;;5005504;28;20197;-67
2021/06/07 07:54:12;;;;;;;2.97;2.67;;;25.20;47.50;;;;;;5010316;28;20204;-68
2021/06/07 07:56:40;;;;;;;3.40;3.10;;;25.20;47.50;;;;;;4991876;28;20211;-66
2021/06/07 07:59:11;;;;;;;3.23;2.93;;;25.20;47.20;;;;;;5005643;28;20965;-67
2021/06/07 08:01:41;;;;;;;4.23;3.30;;;25.20;46.60;;;;;;5000541;28;20203;-67
2021/06/07 08:04:23;;;;;;;3.57;2.63;;;25.20;46.20;;;;;;5000781;28;20339;-68
2021/06/07 08:06:55;;;;;;;5.07;3.50;;;25.20;46.40;;;;;;5007427;28;20989;-66
2021/06/07 08:09:30;;;;;;;6.83;2.97;;;25.20;45.80;;;;;;5008064;28;20211;-68
2021/06/07 08:12:00;;;;;;;4.80;3.00;;;25.20;46.00;;;;;;5007291;28;20207;-66
2021/06/07 08:14:31;;;;;;;3.20;2.60;;;25.20;45.80;;;;;;5005467;28;20215;-68
2021/06/07 08:16:58;;;;;;;4.33;2.70;;;25.20;45.70;;;;;;5002643;28;20192;-66
2021/06/07 08:19:29;;;;;;;3.23;2.40;;;25.30;46.00;;;;;;5003446;28;20223;-66
2021/06/07 08:22:00;;;;;;;3.53;2.53;;;25.30;45.80;;;;;;5005653;28;20232;-65
2021/06/07 08:24:31;;;;;;;3.50;2.37;;;25.30;45.80;;;;;;5006654;28;20199;-65
2021/06/07 08:27:03;;;;;;;3.33;2.20;;;25.40;46.00;;;;;;5004582;28;20767;-64
2021/06/07 08:29:35;;;;;;;5.80;2.40;;;25.40;46.60;;;;;;5007572;28;20283;-65
2021/06/07 08:32:08;;;;;;;3.13;2.63;;;25.50;45.60;;;;;;5004775;28;20223;-65
2021/06/07 08:34:39;;;;;;;3.53;2.07;;;25.50;45.70;;;;;;5007921;28;20819;-67
2021/06/07 08:37:09;;;;;;;3.87;2.00;;;25.50;45.80;;;;;;5004028;28;20719;-66
2021/06/07 08:39:38;;;;;;;3.80;2.00;;;25.50;46.10;;;;;;5003155;28;20654;-66
2021/06/07 08:42:10;;;;;;;7.00;2.00;;;25.50;45.60;;;;;;5008114;28;20853;-66
2021/06/07 08:44:42;;;;;;;4.13;2.07;;;25.60;45.50;;;;;;4965307;28;20585;-68
2021/06/07 08:47:09;;;;;;;2.33;1.97;;;25.50;45.50;;;;;;4988117;28;20199;-66
2021/06/07 08:49:36;;;;;;;5.37;2.30;;;25.50;45.10;;;;;;4995802;28;20827;-66
2021/06/07 08:52:07;;;;;;;3.30;2.13;;;25.50;43.50;;;;;;5017138;28;20226;-66
2021/06/07 08:54:38;;;;;;;4.93;2.00;;;25.50;43.70;;;;;;5005423;28;20211;-68
2021/06/07 08:57:08;;;;;;;3.13;2.00;;;25.50;44.20;;;;;;5008453;28;20203;-68
2021/06/07 08:59:38;;;;;;;4.70;1.90;;;25.50;44.50;;;;;;4989243;28;20227;-67
2021/06/07 09:02:10;;;;;;;1.80;1.60;;;25.60;44.90;;;;;;5009870;28;20272;-66
2021/06/07 09:04:48;;;;;;;2.23;2.03;;;25.60;44.80;;;;;;5002858;28;20214;-63
2021/06/07 09:07:18;;;;;;;3.00;2.03;;;25.70;44.00;;;;;;4998267;28;20245;-67
2021/06/07 09:10:12;;;;;;;3.93;2.13;;;25.60;42.70;;;;;;4995920;28;20214;-66
2021/06/07 09:12:44;;;;;;;2.30;1.77;;;25.50;42.10;;;;;;5008035;28;20219;-67
2021/06/07 09:15:38;;;;;;;3.20;1.70;;;25.50;42.40;;;;;;4987628;28;20245;-66
2021/06/07 09:18:10;;;;;;;2.23;1.60;;;25.60;42.60;;;;;;5007210;28;20227;-65
2021/06/07 09:20:44;;;;;;;2.70;1.73;;;25.60;43.00;;;;;;5000367;28;20250;-66
2021/06/07 09:23:15;;;;;;;2.37;1.67;;;25.60;42.50;;;;;;4995757;28;20208;-72
2021/06/07 09:25:49;;;;;;;2.00;1.50;;;25.60;41.80;;;;;;5008438;28;20212;-72
2021/06/07 09:28:19;;;;;;;2.40;1.80;;;25.60;41.60;;;;;;4985548;28;20221;-71
2021/06/07 09:30:54;;;;;;;4.50;1.77;;;25.50;40.70;;;;;;5009109;28;20253;-72
2021/06/07 09:33:37;;;;;;;4.50;1.50;;;25.30;41.10;;;;;;5007214;28;20230;-72
2021/06/07 09:36:20;;;;;;;1.90;1.50;;;25.30;41.90;;;;;;5005521;28;20195;-71
2021/06/07 09:39:19;;;;;;;3.27;1.40;;;25.30;42.00;;;;;;5009543;28;20231;-70
2021/06/07 09:42:09;;;;;;;1.93;1.70;;;25.30;42.70;;;;;;5011396;28;20187;-71
2021/06/07 09:44:58;;;;;;;3.13;1.90;;;25.30;42.20;;;;;;5003881;28;20635;-68
2021/06/07 09:47:32;;;;;;;5.77;1.77;;;25.40;41.50;;;;;;5011369;28;20191;-68
2021/06/07 09:50:04;;;;;;;2.37;1.70;;;25.40;41.80;;;;;;4991243;28;20290;-68
2021/06/07 09:52:44;;;;;;;4.00;1.60;;;25.40;42.10;;;;;;4990753;28;20230;-68
2021/06/07 09:55:23;;;;;;;1.67;1.50;;;25.50;42.10;;;;;;5001720;28;20239;-68
2021/06/07 09:58:04;;;;;;;1.80;1.40;;;25.50;42.80;;;;;;5004676;28;20594;-69
2021/06/07 10:00:34;;;;;;;5.07;1.80;;;25.50;43.30;;;;;;5001657;28;20713;-66
2021/06/07 10:03:24;;;;;;;4.67;1.37;;;25.50;43.50;;;;;;5005401;28;20219;-71
2021/06/07 10:06:01;;;;;;;3.33;1.30;;;25.60;43.60;;;;;;4984073;28;20197;-70
2021/06/07 10:08:59;;;;;;;1.53;1.43;;;25.70;43.30;;;;;;4990300;28;20237;-69
2021/06/07 10:11:37;;;;;;;2.17;1.97;;;25.70;43.70;;;;;;4980813;28;20212;-73
2021/06/07 10:14:20;;;;;;;2.13;1.90;;;25.70;42.30;;;;;;4981114;28;20247;-70
2021/06/07 10:17:03;;;;;;;5.30;1.80;;;25.60;41.20;;;;;;5003800;28;20192;-71
2021/06/07 10:20:46;;;;;;;1.73;1.60;;;25.60;41.40;;;;;;5011135;28;20214;-70
2021/06/07 10:22:39;;;;;;;2.43;1.80;;;25.60;41.40;;;;;;4971184;28;20314;-72
2021/06/07 10:25:11;;;;;;;2.07;1.87;;;25.60;41.80;;;;;;4962258;28;20829;-71
2021/06/07 10:27:41;;;;;;;1.97;1.57;;;25.60;42.20;;;;;;4978540;28;20221;-71
2021/06/07 10:30:24;;;;;;;3.80;1.80;;;25.60;41.80;;;;;;4952516;28;20298;-71
2021/06/07 10:32:55;;;;;;;2.67;1.97;;;25.60;41.30;;;;;;4965732;28;20221;-71
2021/06/07 10:35:37;;;;;;;1.80;1.70;;;25.60;41.70;;;;;;4966083;28;20272;-72
2021/06/07 10:38:10;;;;;;;2.27;1.87;;;25.60;42.30;;;;;;4952300;28;20551;-72
2021/06/07 10:40:44;;;;;;;2.50;1.80;;;25.60;42.00;;;;;;4954263;28;20227;-72
2021/06/07 10:43:16;;;;;;;2.60;1.80;;;25.60;42.00;;;;;;4960132;28;20212;-72
2021/06/07 10:45:47;;;;;;;1.30;1.20;;;25.60;41.70;;;;;;4975966;28;20658;-67
2021/06/07 10:48:33;;;;;;;3.37;1.40;;;25.60;42.60;;;;;;4961726;28;20236;-69
2021/06/07 10:51:09;;;;;;;1.50;1.20;;;25.60;43.30;;;;;;4931810;28;20208;-70
2021/06/07 10:53:39;;;;;;;1.90;1.40;;;25.70;43.90;;;;;;4975046;28;20219;-69
2021/06/07 10:56:10;;;;;;;2.40;1.37;;;25.70;43.90;;;;;;4994442;28;20646;-68
2021/06/07 10:58:53;;;;;;;1.70;1.60;;;25.70;44.20;;;;;;5008980;28;20211;-69
2021/06/07 11:01:22;;;;;;;1.73;1.57;;;25.70;43.50;;;;;;5005740;28;20223;-68
2021/06/07 11:03:57;;;;;;;2.13;1.80;;;25.70;43.80;;;;;;5004695;28;20204;-69
2021/06/07 11:06:28;;;;;;;1.30;1.20;;;25.80;43.80;;;;;;4996112;28;20219;-70
2021/06/07 11:09:07;;;;;;;2.07;1.47;;;25.80;44.00;;;;;;4990049;28;20203;-68
2021/06/07 11:11:47;;;;;;;3.27;1.50;;;25.80;44.00;;;;;;4989651;28;20195;-68
2021/06/07 11:14:20;;;;;;;5.30;1.90;;;25.90;43.90;;;;;;4996033;28;20212;-68
2021/06/07 11:16:48;;;;;;;4.13;1.93;;;25.90;44.50;;;;;;4988428;28;21180;-70
2021/06/07 11:19:26;;;;;;;4.37;2.00;;;25.90;44.40;;;;;;4988309;28;20219;-70
2021/06/07 11:22:02;;;;;;;2.27;1.83;;;25.90;43.30;;;;;;4999413;28;20199;-70
2021/06/07 11:24:37;;;;;;;2.50;2.00;;;26.00;43.20;;;;;;5006264;28;20943;-70
2021/06/07 11:27:40;;;;;;;4.10;1.77;;;26.00;43.30;;;;;;4989737;28;20269;-70
2021/06/07 11:30:15;;;;;;;3.10;2.30;;;26.00;43.80;;;;;;4996071;28;20694;-68
2021/06/07 11:32:50;;;;;;;4.37;2.03;;;26.00;43.50;;;;;;4995740;28;20199;-67
2021/06/07 11:35:43;;;;;;;5.10;2.80;;;25.90;43.40;;;;;;4992843;28;20211;-68
2021/06/07 11:38:36;;;;;;;3.83;2.60;;;26.00;44.00;;;;;;5002494;28;20200;-68
2021/06/07 11:41:06;;;;;;;4.73;2.80;;;25.90;44.00;;;;;;5000536;28;21001;-70
2021/06/07 11:43:47;;;;;;;3.87;1.97;;;25.90;43.90;;;;;;4976107;28;20196;-70
2021/06/07 11:46:31;;;;;;;3.33;2.40;;;25.90;44.30;;;;;;4992890;28;20216;-67
2021/06/07 11:49:16;;;;;;;5.77;2.30;;;25.90;43.50;;;;;;4998827;28;20249;-67
2021/06/07 11:51:46;;;;;;;2.30;1.70;;;25.90;43.90;;;;;;4995676;28;20211;-68
2021/06/07 11:54:28;;;;;;;4.93;2.73;;;25.90;44.10;;;;;;5008446;28;20565;-69
2021/06/07 11:57:00;;;;;;;2.13;1.83;;;25.90;43.60;;;;;;4997628;28;20294;-67
2021/06/07 11:59:31;;;;;;;2.60;1.80;;;25.90;44.30;;;;;;5002505;28;20246;-67
2021/06/07 12:01:59;;;;;;;3.50;1.93;;;25.90;44.40;;;;;;5000332;28;20190;-68
2021/06/07 12:04:32;;;;;;;3.37;1.80;;;25.90;44.10;;;;;;5003893;28;20219;-67
2021/06/07 12:07:24;;;;;;;4.40;2.47;;;25.80;43.80;;;;;;4969939;28;20310;-68
2021/06/07 12:09:53;;;;;;;2.90;1.80;;;25.80;43.40;;;;;;4999776;28;20806;-68
2021/06/07 12:12:26;;;;;;;4.87;2.00;;;25.80;43.30;;;;;;4996436;28;20204;-68
2021/06/07 12:14:55;;;;;;;4.50;2.20;;;25.80;43.20;;;;;;5005973;28;20638;-68
2021/06/07 12:17:28;;;;;;;1.50;1.40;;;25.80;43.40;;;;;;4980970;28;20234;-71
2021/06/07 12:20:02;;;;;;;4.50;2.00;;;25.80;43.60;;;;;;4989445;28;20216;-71
2021/06/07 12:22:41;;;;;;;2.63;1.60;;;25.90;43.70;;;;;;4996628;28;20206;-71
2021/06/07 12:25:42;;;;;;;2.43;1.47;;;25.80;43.70;;;;;;5003857;28;20234;-68
2021/06/07 12:28:17;;;;;;;4.90;1.70;;;25.80;44.40;;;;;;5000391;28;20188;-67
2021/06/07 12:30:56;;;;;;;3.23;1.67;;;25.80;44.30;;;;;;5004337;28;20217;-67
2021/06/07 12:33:37;;;;;;;1.70;1.50;;;25.80;44.50;;;;;;4997844;28;20206;-68
2021/06/07 12:36:08;;;;;;;2.73;1.40;;;25.80;44.10;;;;;;5004986;28;20202;-70
2021/06/07 12:38:42;;;;;;;1.53;1.30;;;25.80;44.70;;;;;;4999672;28;20199;-70
2021/06/07 12:41:24;;;;;;;1.70;1.60;;;25.80;44.80;;;;;;5001577;28;20228;-69
2021/06/07 12:43:52;;;;;;;2.23;1.73;;;25.80;44.00;;;;;;5005443;28;20227;-70
2021/06/07 12:46:25;;;;;;;2.93;1.83;;;25.80;44.90;;;;;;5005043;28;20203;-68
2021/06/07 12:48:57;;;;;;;3.37;1.60;;;25.80;44.10;;;;;;5007898;28;20201;-68
2021/06/07 12:51:27;;;;;;;2.43;1.70;;;25.90;44.60;;;;;;5004112;28;20203;-67
2021/06/07 12:53:56;;;;;;;2.60;1.90;;;25.90;44.30;;;;;;4997721;28;20211;-67
2021/06/07 12:56:27;;;;;;;2.67;1.77;;;25.90;44.00;;;;;;4993025;28;20214;-67
2021/06/07 12:58:59;;;;;;;2.77;2.00;;;25.90;44.20;;;;;;4958571;28;20223;-66
2021/06/07 13:01:50;;;;;;;1.63;1.50;;;25.90;43.80;;;;;;5007919;28;20235;-69
2021/06/07 13:04:37;;;;;;;3.87;2.30;;;25.90;44.20;;;;;;4992847;28;20204;-69
2021/06/07 13:07:17;;;;;;;2.40;1.93;;;25.90;44.20;;;;;;5005029;28;20227;-68
2021/06/07 13:09:49;;;;;;;2.20;2.00;;;25.90;43.80;;;;;;5006648;28;20543;-69
2021/06/07 13:12:28;;;;;;;3.67;1.83;;;25.90;43.80;;;;;;5005771;28;20223;-69